sensor_id;sensor_type;location;lat;lon;timestamp;P1;durP1;ratioP1;P2;durP2;ratioP2
33074;SDS011;19433;51.292;6.868;2023-07-08T00:00:49;2.80;;;2.20;;
33074;SDS011;19433;51.292;6.868;2023-07-08T00:03:15;2.73;;;2.53;;
33074;SDS011;19433;51.292;6.868;2023-07-08T00:05:41;3.20;;;2.63;;
33074;SDS011;19433;51.292;6.868;2023-07-08T00:08:16;2.47;;;2.27;;
33074;SDS011;19433;51.292;6.868;2023-07-08T00:10:44;3.30;;;3.10;;
33074;SDS011;19433;51.292;6.868;2023-07-08T00:13:09;2.80;;;2.57;;
33074;SDS011;19433;51.292;6.868;2023-07-08T00:15:35;2.53;;;2.33;;
33074;SDS011;19433;51.292;6.868;2023-07-08T00:18:08;2.70;;;2.50;;
33074;SDS011;19433;51.292;6.868;2023-07-08T00:20:47;3.23;;;2.60;;
33074;SDS011;19433;51.292;6.868;2023-07-08T00:23:13;2.70;;;2.50;;
33074;SDS011;19433;51.292;6.868;2023-07-08T00:25:39;13.33;;;3.53;;
33074;SDS011;19433;51.292;6.868;2023-07-08T00:28:09;2.57;;;2.37;;
33074;SDS011;19433;51.292;6.868;2023-07-08T00:30:39;3.27;;;2.97;;
33074;SDS011;19433;51.292;6.868;2023-07-08T00:33:05;2.90;;;2.63;;
33074;SDS011;19433;51.292;6.868;2023-07-08T00:35:35;2.67;;;2.47;;
33074;SDS011;19433;51.292;6.868;2023-07-08T00:38:08;3.70;;;2.67;;
33074;SDS011;19433;51.292;6.868;2023-07-08T00:40:47;2.73;;;2.53;;
33074;SDS011;19433;51.292;6.868;2023-07-08T00:43:14;2.40;;;2.20;;
33074;SDS011;19433;51.292;6.868;2023-07-08T00:45:45;2.73;;;2.53;;
33074;SDS011;19433;51.292;6.868;2023-07-08T00:50:49;3.27;;;2.40;;
33074;SDS011;19433;51.292;6.868;2023-07-08T00:53:28;2.60;;;2.40;;
33074;SDS011;19433;51.292;6.868;2023-07-08T00:55:59;2.50;;;2.30;;
33074;SDS011;19433;51.292;6.868;2023-07-08T00:58:29;3.93;;;2.23;;
33074;SDS011;19433;51.292;6.868;2023-07-08T01:01:05;3.83;;;3.23;;
33074;SDS011;19433;51.292;6.868;2023-07-08T01:03:32;2.40;;;2.20;;
33074;SDS011;19433;51.292;6.868;2023-07-08T01:06:03;3.63;;;2.70;;
33074;SDS011;19433;51.292;6.868;2023-07-08T01:08:30;3.10;;;2.90;;
33074;SDS011;19433;51.292;6.868;2023-07-08T01:10:59;3.50;;;2.80;;
33074;SDS011;19433;51.292;6.868;2023-07-08T01:13:27;2.77;;;2.57;;
33074;SDS011;19433;51.292;6.868;2023-07-08T01:15:56;2.27;;;2.17;;
33074;SDS011;19433;51.292;6.868;2023-07-08T01:18:23;3.13;;;2.90;;
33074;SDS011;19433;51.292;6.868;2023-07-08T01:20:50;2.70;;;2.50;;
33074;SDS011;19433;51.292;6.868;2023-07-08T01:23:16;2.83;;;2.63;;
33074;SDS011;19433;51.292;6.868;2023-07-08T01:25:43;3.80;;;2.30;;
33074;SDS011;19433;51.292;6.868;2023-07-08T01:28:09;3.80;;;2.70;;
33074;SDS011;19433;51.292;6.868;2023-07-08T01:30:35;2.70;;;2.50;;
33074;SDS011;19433;51.292;6.868;2023-07-08T01:33:02;4.33;;;2.83;;
33074;SDS011;19433;51.292;6.868;2023-07-08T01:35:32;3.00;;;2.43;;
33074;SDS011;19433;51.292;6.868;2023-07-08T01:37:59;2.20;;;1.97;;
33074;SDS011;19433;51.292;6.868;2023-07-08T01:42:55;2.80;;;2.60;;
33074;SDS011;19433;51.292;6.868;2023-07-08T01:45:22;3.20;;;2.90;;
33074;SDS011;19433;51.292;6.868;2023-07-08T01:48:06;2.97;;;2.77;;
33074;SDS011;19433;51.292;6.868;2023-07-08T01:50:35;2.80;;;2.60;;
33074;SDS011;19433;51.292;6.868;2023-07-08T01:53:05;2.60;;;2.20;;
33074;SDS011;19433;51.292;6.868;2023-07-08T01:55:35;3.10;;;2.80;;
33074;SDS011;19433;51.292;6.868;2023-07-08T01:58:00;2.83;;;2.50;;
33074;SDS011;19433;51.292;6.868;2023-07-08T02:00:25;2.73;;;2.53;;
33074;SDS011;19433;51.292;6.868;2023-07-08T02:02:51;3.00;;;2.80;;
33074;SDS011;19433;51.292;6.868;2023-07-08T02:05:16;2.53;;;2.33;;
33074;SDS011;19433;51.292;6.868;2023-07-08T02:07:42;3.10;;;2.13;;
33074;SDS011;19433;51.292;6.868;2023-07-08T02:10:07;4.40;;;2.43;;
33074;SDS011;19433;51.292;6.868;2023-07-08T02:12:33;2.73;;;2.40;;
33074;SDS011;19433;51.292;6.868;2023-07-08T02:15:01;2.77;;;2.57;;
33074;SDS011;19433;51.292;6.868;2023-07-08T02:17:27;3.60;;;2.70;;
33074;SDS011;19433;51.292;6.868;2023-07-08T02:19:55;4.07;;;2.70;;
33074;SDS011;19433;51.292;6.868;2023-07-08T02:22:21;3.97;;;3.10;;
33074;SDS011;19433;51.292;6.868;2023-07-08T02:24:47;4.00;;;2.77;;
33074;SDS011;19433;51.292;6.868;2023-07-08T02:27:13;2.90;;;2.70;;
33074;SDS011;19433;51.292;6.868;2023-07-08T02:29:38;2.97;;;2.67;;
33074;SDS011;19433;51.292;6.868;2023-07-08T02:32:04;3.27;;;2.97;;
33074;SDS011;19433;51.292;6.868;2023-07-08T02:34:30;3.20;;;3.00;;
33074;SDS011;19433;51.292;6.868;2023-07-08T02:36:55;2.80;;;2.47;;
33074;SDS011;19433;51.292;6.868;2023-07-08T02:39:21;2.93;;;2.73;;
33074;SDS011;19433;51.292;6.868;2023-07-08T02:41:47;2.97;;;2.57;;
33074;SDS011;19433;51.292;6.868;2023-07-08T02:44:12;3.40;;;3.20;;
33074;SDS011;19433;51.292;6.868;2023-07-08T02:46:37;3.73;;;3.03;;
33074;SDS011;19433;51.292;6.868;2023-07-08T02:49:03;5.00;;;3.63;;
33074;SDS011;19433;51.292;6.868;2023-07-08T02:51:29;3.83;;;3.00;;
33074;SDS011;19433;51.292;6.868;2023-07-08T02:53:54;2.53;;;2.33;;
33074;SDS011;19433;51.292;6.868;2023-07-08T02:56:19;2.33;;;2.13;;
33074;SDS011;19433;51.292;6.868;2023-07-08T02:58:46;3.10;;;2.67;;
33074;SDS011;19433;51.292;6.868;2023-07-08T03:01:11;3.70;;;3.30;;
33074;SDS011;19433;51.292;6.868;2023-07-08T03:03:37;3.07;;;2.80;;
33074;SDS011;19433;51.292;6.868;2023-07-08T03:06:03;3.20;;;2.90;;
33074;SDS011;19433;51.292;6.868;2023-07-08T03:08:30;4.00;;;2.70;;
33074;SDS011;19433;51.292;6.868;2023-07-08T03:10:57;8.50;;;2.73;;
33074;SDS011;19433;51.292;6.868;2023-07-08T03:13:27;3.50;;;3.20;;
33074;SDS011;19433;51.292;6.868;2023-07-08T03:15:53;2.90;;;2.70;;
33074;SDS011;19433;51.292;6.868;2023-07-08T03:18:22;3.20;;;2.90;;
33074;SDS011;19433;51.292;6.868;2023-07-08T03:20:52;3.50;;;3.20;;
33074;SDS011;19433;51.292;6.868;2023-07-08T03:23:18;3.83;;;3.10;;
33074;SDS011;19433;51.292;6.868;2023-07-08T03:25:43;4.33;;;3.07;;
33074;SDS011;19433;51.292;6.868;2023-07-08T03:28:09;3.23;;;2.93;;
33074;SDS011;19433;51.292;6.868;2023-07-08T03:30:40;3.80;;;3.43;;
33074;SDS011;19433;51.292;6.868;2023-07-08T03:33:06;3.00;;;2.70;;
33074;SDS011;19433;51.292;6.868;2023-07-08T03:35:33;3.63;;;3.33;;
33074;SDS011;19433;51.292;6.868;2023-07-08T03:37:58;4.20;;;3.00;;
33074;SDS011;19433;51.292;6.868;2023-07-08T03:40:23;4.07;;;3.63;;
33074;SDS011;19433;51.292;6.868;2023-07-08T03:42:49;3.37;;;3.07;;
33074;SDS011;19433;51.292;6.868;2023-07-08T03:45:14;3.23;;;3.03;;
33074;SDS011;19433;51.292;6.868;2023-07-08T03:47:39;3.40;;;2.90;;
33074;SDS011;19433;51.292;6.868;2023-07-08T03:50:05;4.10;;;2.70;;
33074;SDS011;19433;51.292;6.868;2023-07-08T03:52:31;2.83;;;2.63;;
33074;SDS011;19433;51.292;6.868;2023-07-08T03:54:57;3.40;;;3.10;;
33074;SDS011;19433;51.292;6.868;2023-07-08T03:57:22;3.57;;;3.27;;
33074;SDS011;19433;51.292;6.868;2023-07-08T03:59:47;3.10;;;2.90;;
33074;SDS011;19433;51.292;6.868;2023-07-08T04:02:12;3.50;;;3.03;;
33074;SDS011;19433;51.292;6.868;2023-07-08T04:04:38;3.53;;;2.87;;
33074;SDS011;19433;51.292;6.868;2023-07-08T04:07:04;2.97;;;2.63;;
33074;SDS011;19433;51.292;6.868;2023-07-08T04:09:29;3.40;;;3.20;;
33074;SDS011;19433;51.292;6.868;2023-07-08T04:11:55;3.37;;;3.10;;
33074;SDS011;19433;51.292;6.868;2023-07-08T04:14:20;3.70;;;2.97;;
33074;SDS011;19433;51.292;6.868;2023-07-08T04:16:48;4.60;;;3.40;;
33074;SDS011;19433;51.292;6.868;2023-07-08T04:19:19;3.33;;;3.03;;
33074;SDS011;19433;51.292;6.868;2023-07-08T04:21:45;4.03;;;3.53;;
33074;SDS011;19433;51.292;6.868;2023-07-08T04:24:11;3.60;;;2.83;;
33074;SDS011;19433;51.292;6.868;2023-07-08T04:26:38;4.63;;;4.10;;
33074;SDS011;19433;51.292;6.868;2023-07-08T04:29:14;6.10;;;3.00;;
33074;SDS011;19433;51.292;6.868;2023-07-08T04:31:41;3.33;;;3.03;;
33074;SDS011;19433;51.292;6.868;2023-07-08T04:34:07;2.93;;;2.73;;
33074;SDS011;19433;51.292;6.868;2023-07-08T04:36:32;2.87;;;2.67;;
33074;SDS011;19433;51.292;6.868;2023-07-08T04:38:59;4.30;;;3.50;;
33074;SDS011;19433;51.292;6.868;2023-07-08T04:41:25;3.50;;;3.20;;
33074;SDS011;19433;51.292;6.868;2023-07-08T04:43:50;3.13;;;2.60;;
33074;SDS011;19433;51.292;6.868;2023-07-08T04:46:21;4.10;;;2.70;;
33074;SDS011;19433;51.292;6.868;2023-07-08T04:48:55;3.43;;;3.23;;
33074;SDS011;19433;51.292;6.868;2023-07-08T04:51:21;3.50;;;3.20;;
33074;SDS011;19433;51.292;6.868;2023-07-08T04:53:46;3.20;;;3.00;;
33074;SDS011;19433;51.292;6.868;2023-07-08T04:56:11;2.83;;;2.63;;
33074;SDS011;19433;51.292;6.868;2023-07-08T04:58:37;3.10;;;2.90;;
33074;SDS011;19433;51.292;6.868;2023-07-08T05:01:02;2.83;;;2.60;;
33074;SDS011;19433;51.292;6.868;2023-07-08T05:03:27;3.70;;;3.40;;
33074;SDS011;19433;51.292;6.868;2023-07-08T05:05:53;3.30;;;3.00;;
33074;SDS011;19433;51.292;6.868;2023-07-08T05:08:18;5.40;;;2.90;;
33074;SDS011;19433;51.292;6.868;2023-07-08T05:10:43;3.90;;;3.60;;
33074;SDS011;19433;51.292;6.868;2023-07-08T05:13:09;4.87;;;3.77;;
33074;SDS011;19433;51.292;6.868;2023-07-08T05:15:35;4.50;;;3.70;;
33074;SDS011;19433;51.292;6.868;2023-07-08T05:18:01;3.37;;;2.57;;
33074;SDS011;19433;51.292;6.868;2023-07-08T05:20:26;3.50;;;3.20;;
33074;SDS011;19433;51.292;6.868;2023-07-08T05:22:51;4.07;;;3.67;;
33074;SDS011;19433;51.292;6.868;2023-07-08T05:25:17;3.47;;;3.17;;
33074;SDS011;19433;51.292;6.868;2023-07-08T05:27:44;3.20;;;2.93;;
33074;SDS011;19433;51.292;6.868;2023-07-08T05:30:11;3.27;;;2.87;;
33074;SDS011;19433;51.292;6.868;2023-07-08T05:32:40;3.33;;;3.03;;
33074;SDS011;19433;51.292;6.868;2023-07-08T05:35:05;3.87;;;3.33;;
33074;SDS011;19433;51.292;6.868;2023-07-08T05:37:31;4.60;;;3.50;;
33074;SDS011;19433;51.292;6.868;2023-07-08T05:39:56;3.87;;;3.50;;
33074;SDS011;19433;51.292;6.868;2023-07-08T05:42:22;4.23;;;3.80;;
33074;SDS011;19433;51.292;6.868;2023-07-08T05:44:48;3.30;;;3.00;;
33074;SDS011;19433;51.292;6.868;2023-07-08T05:47:14;4.70;;;3.67;;
33074;SDS011;19433;51.292;6.868;2023-07-08T05:49:40;4.17;;;3.77;;
33074;SDS011;19433;51.292;6.868;2023-07-08T05:52:05;3.70;;;3.40;;
33074;SDS011;19433;51.292;6.868;2023-07-08T05:54:35;4.70;;;4.30;;
33074;SDS011;19433;51.292;6.868;2023-07-08T05:57:02;3.77;;;3.47;;
33074;SDS011;19433;51.292;6.868;2023-07-08T05:59:27;4.20;;;3.30;;
33074;SDS011;19433;51.292;6.868;2023-07-08T06:01:52;4.37;;;3.60;;
33074;SDS011;19433;51.292;6.868;2023-07-08T06:04:18;3.90;;;3.33;;
33074;SDS011;19433;51.292;6.868;2023-07-08T06:06:43;3.57;;;3.27;;
33074;SDS011;19433;51.292;6.868;2023-07-08T06:09:08;4.30;;;3.83;;
33074;SDS011;19433;51.292;6.868;2023-07-08T06:11:33;3.90;;;3.33;;
33074;SDS011;19433;51.292;6.868;2023-07-08T06:13:59;3.97;;;3.57;;
33074;SDS011;19433;51.292;6.868;2023-07-08T06:16:24;4.83;;;4.33;;
33074;SDS011;19433;51.292;6.868;2023-07-08T06:18:49;5.37;;;4.10;;
33074;SDS011;19433;51.292;6.868;2023-07-08T06:21:15;6.20;;;4.37;;
33074;SDS011;19433;51.292;6.868;2023-07-08T06:23:40;3.83;;;3.53;;
33074;SDS011;19433;51.292;6.868;2023-07-08T06:26:05;4.53;;;3.30;;
33074;SDS011;19433;51.292;6.868;2023-07-08T06:28:30;4.70;;;3.40;;
33074;SDS011;19433;51.292;6.868;2023-07-08T06:30:56;4.73;;;4.30;;
33074;SDS011;19433;51.292;6.868;2023-07-08T06:33:21;4.50;;;3.80;;
33074;SDS011;19433;51.292;6.868;2023-07-08T06:35:46;3.70;;;3.13;;
33074;SDS011;19433;51.292;6.868;2023-07-08T06:38:12;4.03;;;3.70;;
33074;SDS011;19433;51.292;6.868;2023-07-08T06:40:38;4.07;;;3.67;;
33074;SDS011;19433;51.292;6.868;2023-07-08T06:43:03;3.90;;;3.60;;
33074;SDS011;19433;51.292;6.868;2023-07-08T06:45:28;3.63;;;3.30;;
33074;SDS011;19433;51.292;6.868;2023-07-08T06:47:54;4.70;;;4.13;;
33074;SDS011;19433;51.292;6.868;2023-07-08T06:50:19;3.80;;;3.50;;
33074;SDS011;19433;51.292;6.868;2023-07-08T06:52:44;4.90;;;3.63;;
33074;SDS011;19433;51.292;6.868;2023-07-08T06:55:10;4.80;;;4.40;;
33074;SDS011;19433;51.292;6.868;2023-07-08T06:57:36;4.60;;;4.20;;
33074;SDS011;19433;51.292;6.868;2023-07-08T07:00:03;3.97;;;3.57;;
33074;SDS011;19433;51.292;6.868;2023-07-08T07:02:30;3.60;;;3.30;;
33074;SDS011;19433;51.292;6.868;2023-07-08T07:04:55;4.33;;;3.93;;
33074;SDS011;19433;51.292;6.868;2023-07-08T07:07:20;4.10;;;3.70;;
33074;SDS011;19433;51.292;6.868;2023-07-08T07:09:46;4.23;;;3.83;;
33074;SDS011;19433;51.292;6.868;2023-07-08T07:12:11;5.00;;;4.50;;
33074;SDS011;19433;51.292;6.868;2023-07-08T07:14:36;4.37;;;3.97;;
33074;SDS011;19433;51.292;6.868;2023-07-08T07:17:02;4.10;;;3.70;;
33074;SDS011;19433;51.292;6.868;2023-07-08T07:19:27;4.07;;;3.70;;
33074;SDS011;19433;51.292;6.868;2023-07-08T07:21:52;5.07;;;4.03;;
33074;SDS011;19433;51.292;6.868;2023-07-08T07:24:18;4.10;;;3.70;;
33074;SDS011;19433;51.292;6.868;2023-07-08T07:26:43;4.90;;;4.50;;
33074;SDS011;19433;51.292;6.868;2023-07-08T07:29:09;4.00;;;3.60;;
33074;SDS011;19433;51.292;6.868;2023-07-08T07:31:34;4.07;;;3.70;;
33074;SDS011;19433;51.292;6.868;2023-07-08T07:34:00;4.17;;;3.87;;
33074;SDS011;19433;51.292;6.868;2023-07-08T07:36:26;4.20;;;3.90;;
33074;SDS011;19433;51.292;6.868;2023-07-08T07:38:52;4.27;;;3.87;;
33074;SDS011;19433;51.292;6.868;2023-07-08T07:41:17;4.57;;;4.27;;
33074;SDS011;19433;51.292;6.868;2023-07-08T07:43:42;5.27;;;4.80;;
33074;SDS011;19433;51.292;6.868;2023-07-08T07:46:08;4.00;;;3.70;;
33074;SDS011;19433;51.292;6.868;2023-07-08T07:48:35;8.10;;;4.57;;
33074;SDS011;19433;51.292;6.868;2023-07-08T07:51:01;4.40;;;4.00;;
33074;SDS011;19433;51.292;6.868;2023-07-08T07:53:26;6.33;;;4.50;;
33074;SDS011;19433;51.292;6.868;2023-07-08T07:56:01;4.50;;;4.13;;
33074;SDS011;19433;51.292;6.868;2023-07-08T07:58:28;4.80;;;4.30;;
33074;SDS011;19433;51.292;6.868;2023-07-08T08:00:54;4.07;;;3.77;;
33074;SDS011;19433;51.292;6.868;2023-07-08T08:03:20;4.70;;;4.40;;
33074;SDS011;19433;51.292;6.868;2023-07-08T08:05:46;5.10;;;4.70;;
33074;SDS011;19433;51.292;6.868;2023-07-08T08:08:12;5.20;;;4.70;;
33074;SDS011;19433;51.292;6.868;2023-07-08T08:10:37;5.13;;;4.63;;
33074;SDS011;19433;51.292;6.868;2023-07-08T08:13:02;4.83;;;4.43;;
33074;SDS011;19433;51.292;6.868;2023-07-08T08:15:28;4.03;;;3.73;;
33074;SDS011;19433;51.292;6.868;2023-07-08T08:17:54;5.00;;;4.43;;
33074;SDS011;19433;51.292;6.868;2023-07-08T08:20:20;4.90;;;4.17;;
33074;SDS011;19433;51.292;6.868;2023-07-08T08:22:46;5.13;;;4.73;;
33074;SDS011;19433;51.292;6.868;2023-07-08T08:25:12;4.60;;;4.30;;
33074;SDS011;19433;51.292;6.868;2023-07-08T08:27:38;4.30;;;3.90;;
33074;SDS011;19433;51.292;6.868;2023-07-08T08:30:04;4.90;;;4.50;;
33074;SDS011;19433;51.292;6.868;2023-07-08T08:32:31;4.27;;;3.97;;
33074;SDS011;19433;51.292;6.868;2023-07-08T08:34:56;4.47;;;4.17;;
33074;SDS011;19433;51.292;6.868;2023-07-08T08:37:22;5.03;;;4.60;;
33074;SDS011;19433;51.292;6.868;2023-07-08T08:39:47;4.83;;;4.43;;
33074;SDS011;19433;51.292;6.868;2023-07-08T08:42:17;4.77;;;4.40;;
33074;SDS011;19433;51.292;6.868;2023-07-08T08:44:49;4.17;;;3.87;;
33074;SDS011;19433;51.292;6.868;2023-07-08T08:50:08;4.97;;;4.57;;
33074;SDS011;19433;51.292;6.868;2023-07-08T08:52:37;4.20;;;3.90;;
33074;SDS011;19433;51.292;6.868;2023-07-08T08:55:13;4.17;;;3.60;;
33074;SDS011;19433;51.292;6.868;2023-07-08T09:00:29;4.33;;;3.97;;
33074;SDS011;19433;51.292;6.868;2023-07-08T09:03:08;4.30;;;3.90;;
33074;SDS011;19433;51.292;6.868;2023-07-08T09:05:39;4.20;;;3.80;;
33074;SDS011;19433;51.292;6.868;2023-07-08T09:10:56;4.33;;;4.00;;
33074;SDS011;19433;51.292;6.868;2023-07-08T09:13:30;4.30;;;3.90;;
33074;SDS011;19433;51.292;6.868;2023-07-08T09:16:18;3.70;;;3.40;;
33074;SDS011;19433;51.292;6.868;2023-07-08T09:18:56;4.23;;;3.83;;
33074;SDS011;19433;51.292;6.868;2023-07-08T09:21:26;4.03;;;3.73;;
33074;SDS011;19433;51.292;6.868;2023-07-08T09:24:01;3.30;;;3.00;;
33074;SDS011;19433;51.292;6.868;2023-07-08T09:26:32;4.03;;;3.73;;
33074;SDS011;19433;51.292;6.868;2023-07-08T09:28:58;4.83;;;4.43;;
33074;SDS011;19433;51.292;6.868;2023-07-08T09:31:25;4.20;;;3.60;;
33074;SDS011;19433;51.292;6.868;2023-07-08T09:33:53;3.50;;;3.20;;
33074;SDS011;19433;51.292;6.868;2023-07-08T09:36:30;3.63;;;3.43;;
33074;SDS011;19433;51.292;6.868;2023-07-08T09:38:55;4.37;;;4.07;;
33074;SDS011;19433;51.292;6.868;2023-07-08T09:41:34;4.40;;;3.73;;
33074;SDS011;19433;51.292;6.868;2023-07-08T09:44:13;4.17;;;3.87;;
33074;SDS011;19433;51.292;6.868;2023-07-08T09:46:54;4.10;;;3.80;;
33074;SDS011;19433;51.292;6.868;2023-07-08T09:49:28;3.90;;;3.60;;
33074;SDS011;19433;51.292;6.868;2023-07-08T09:51:57;4.07;;;3.77;;
33074;SDS011;19433;51.292;6.868;2023-07-08T09:54:23;4.20;;;3.90;;
33074;SDS011;19433;51.292;6.868;2023-07-08T09:56:54;3.83;;;3.53;;
33074;SDS011;19433;51.292;6.868;2023-07-08T09:59:23;3.57;;;3.30;;
33074;SDS011;19433;51.292;6.868;2023-07-08T10:01:56;3.73;;;3.53;;
33074;SDS011;19433;51.292;6.868;2023-07-08T10:04:23;3.23;;;3.03;;
33074;SDS011;19433;51.292;6.868;2023-07-08T10:06:49;3.63;;;2.90;;
33074;SDS011;19433;51.292;6.868;2023-07-08T10:09:19;3.90;;;3.60;;
33074;SDS011;19433;51.292;6.868;2023-07-08T10:11:59;3.70;;;3.50;;
33074;SDS011;19433;51.292;6.868;2023-07-08T10:14:29;3.30;;;3.10;;
33074;SDS011;19433;51.292;6.868;2023-07-08T10:17:01;3.97;;;3.37;;
33074;SDS011;19433;51.292;6.868;2023-07-08T10:19:26;3.70;;;3.40;;
33074;SDS011;19433;51.292;6.868;2023-07-08T10:25:02;3.97;;;3.50;;
33074;SDS011;19433;51.292;6.868;2023-07-08T10:27:39;3.83;;;3.50;;
33074;SDS011;19433;51.292;6.868;2023-07-08T10:35:33;2.83;;;2.63;;
33074;SDS011;19433;51.292;6.868;2023-07-08T10:41:09;4.53;;;3.50;;
33074;SDS011;19433;51.292;6.868;2023-07-08T10:55:17;3.03;;;2.80;;
33074;SDS011;19433;51.292;6.868;2023-07-08T10:57:55;3.20;;;3.00;;
33074;SDS011;19433;51.292;6.868;2023-07-08T11:00:32;3.50;;;3.30;;
33074;SDS011;19433;51.292;6.868;2023-07-08T11:03:30;3.83;;;3.23;;
33074;SDS011;19433;51.292;6.868;2023-07-08T11:06:10;2.93;;;2.73;;
33074;SDS011;19433;51.292;6.868;2023-07-08T11:09:15;3.37;;;3.17;;
33074;SDS011;19433;51.292;6.868;2023-07-08T11:11:37;3.50;;;3.30;;
33074;SDS011;19433;51.292;6.868;2023-07-08T11:14:16;2.90;;;2.70;;
33074;SDS011;19433;51.292;6.868;2023-07-08T11:17:23;3.43;;;3.17;;
33074;SDS011;19433;51.292;6.868;2023-07-08T11:19:50;3.07;;;2.87;;
33074;SDS011;19433;51.292;6.868;2023-07-08T11:22:20;3.00;;;2.80;;
33074;SDS011;19433;51.292;6.868;2023-07-08T11:24:47;3.67;;;3.40;;
33074;SDS011;19433;51.292;6.868;2023-07-08T11:27:29;3.60;;;3.27;;
33074;SDS011;19433;51.292;6.868;2023-07-08T11:30:08;3.33;;;3.03;;
33074;SDS011;19433;51.292;6.868;2023-07-08T11:32:38;3.83;;;3.53;;
33074;SDS011;19433;51.292;6.868;2023-07-08T11:35:06;3.40;;;3.10;;
33074;SDS011;19433;51.292;6.868;2023-07-08T11:37:44;3.00;;;2.80;;
33074;SDS011;19433;51.292;6.868;2023-07-08T11:42:47;3.37;;;3.07;;
33074;SDS011;19433;51.292;6.868;2023-07-08T11:47:44;3.50;;;3.20;;
33074;SDS011;19433;51.292;6.868;2023-07-08T11:50:19;3.87;;;3.43;;
33074;SDS011;19433;51.292;6.868;2023-07-08T11:52:51;3.53;;;3.13;;
33074;SDS011;19433;51.292;6.868;2023-07-08T11:55:21;3.13;;;2.93;;
33074;SDS011;19433;51.292;6.868;2023-07-08T11:57:53;2.83;;;2.63;;
33074;SDS011;19433;51.292;6.868;2023-07-08T12:00:22;3.90;;;2.87;;
33074;SDS011;19433;51.292;6.868;2023-07-08T12:02:51;3.90;;;3.47;;
33074;SDS011;19433;51.292;6.868;2023-07-08T12:05:28;3.40;;;3.10;;
33074;SDS011;19433;51.292;6.868;2023-07-08T12:07:56;3.07;;;2.87;;
33074;SDS011;19433;51.292;6.868;2023-07-08T12:10:32;2.87;;;2.67;;
33074;SDS011;19433;51.292;6.868;2023-07-08T12:13:00;5.07;;;4.00;;
33074;SDS011;19433;51.292;6.868;2023-07-08T12:15:27;3.60;;;3.30;;
33074;SDS011;19433;51.292;6.868;2023-07-08T12:17:55;3.30;;;3.10;;
33074;SDS011;19433;51.292;6.868;2023-07-08T12:20:25;3.40;;;3.10;;
33074;SDS011;19433;51.292;6.868;2023-07-08T12:22:54;3.47;;;2.63;;
33074;SDS011;19433;51.292;6.868;2023-07-08T12:25:26;3.40;;;3.10;;
33074;SDS011;19433;51.292;6.868;2023-07-08T12:27:53;4.80;;;4.40;;
33074;SDS011;19433;51.292;6.868;2023-07-08T12:30:18;2.90;;;2.70;;
33074;SDS011;19433;51.292;6.868;2023-07-08T12:32:44;3.20;;;3.00;;
33074;SDS011;19433;51.292;6.868;2023-07-08T12:35:18;3.63;;;3.33;;
33074;SDS011;19433;51.292;6.868;2023-07-08T12:37:47;3.83;;;3.23;;
33074;SDS011;19433;51.292;6.868;2023-07-08T12:40:13;3.67;;;3.37;;
33074;SDS011;19433;51.292;6.868;2023-07-08T12:42:40;3.43;;;3.23;;
33074;SDS011;19433;51.292;6.868;2023-07-08T12:45:23;3.83;;;3.63;;
33074;SDS011;19433;51.292;6.868;2023-07-08T12:47:50;3.80;;;3.50;;
33074;SDS011;19433;51.292;6.868;2023-07-08T12:50:16;3.57;;;3.37;;
33074;SDS011;19433;51.292;6.868;2023-07-08T12:52:45;3.30;;;3.07;;
33074;SDS011;19433;51.292;6.868;2023-07-08T12:55:12;3.67;;;3.37;;
33074;SDS011;19433;51.292;6.868;2023-07-08T12:57:40;3.87;;;3.57;;
33074;SDS011;19433;51.292;6.868;2023-07-08T13:00:15;4.07;;;3.73;;
33074;SDS011;19433;51.292;6.868;2023-07-08T13:02:46;3.30;;;3.10;;
33074;SDS011;19433;51.292;6.868;2023-07-08T13:05:13;3.00;;;2.80;;
33074;SDS011;19433;51.292;6.868;2023-07-08T13:07:40;3.07;;;2.87;;
33074;SDS011;19433;51.292;6.868;2023-07-08T13:10:13;3.03;;;2.83;;
33074;SDS011;19433;51.292;6.868;2023-07-08T13:12:43;4.40;;;3.57;;
33074;SDS011;19433;51.292;6.868;2023-07-08T13:15:16;3.63;;;3.33;;
33074;SDS011;19433;51.292;6.868;2023-07-08T13:17:48;3.77;;;3.50;;
33074;SDS011;19433;51.292;6.868;2023-07-08T13:20:14;3.90;;;3.60;;
33074;SDS011;19433;51.292;6.868;2023-07-08T13:22:41;3.33;;;3.07;;
33074;SDS011;19433;51.292;6.868;2023-07-08T13:25:14;4.53;;;3.10;;
33074;SDS011;19433;51.292;6.868;2023-07-08T13:27:42;2.80;;;2.60;;
33074;SDS011;19433;51.292;6.868;2023-07-08T13:30:19;3.17;;;2.97;;
33074;SDS011;19433;51.292;6.868;2023-07-08T13:32:51;3.00;;;2.77;;
33074;SDS011;19433;51.292;6.868;2023-07-08T13:35:40;2.83;;;2.63;;
33074;SDS011;19433;51.292;6.868;2023-07-08T13:38:05;3.23;;;2.80;;
33074;SDS011;19433;51.292;6.868;2023-07-08T13:40:37;3.47;;;2.60;;
33074;SDS011;19433;51.292;6.868;2023-07-08T13:43:09;3.07;;;2.87;;
33074;SDS011;19433;51.292;6.868;2023-07-08T13:45:34;3.03;;;2.83;;
33074;SDS011;19433;51.292;6.868;2023-07-08T13:48:12;2.80;;;2.60;;
33074;SDS011;19433;51.292;6.868;2023-07-08T13:51:08;2.80;;;2.60;;
33074;SDS011;19433;51.292;6.868;2023-07-08T13:56:10;2.50;;;2.30;;
33074;SDS011;19433;51.292;6.868;2023-07-08T13:58:41;3.53;;;2.50;;
33074;SDS011;19433;51.292;6.868;2023-07-08T14:01:10;3.30;;;3.00;;
33074;SDS011;19433;51.292;6.868;2023-07-08T14:03:41;3.23;;;3.03;;
33074;SDS011;19433;51.292;6.868;2023-07-08T14:06:11;3.40;;;3.10;;
33074;SDS011;19433;51.292;6.868;2023-07-08T14:08:39;3.53;;;3.10;;
33074;SDS011;19433;51.292;6.868;2023-07-08T14:11:04;3.40;;;3.10;;
33074;SDS011;19433;51.292;6.868;2023-07-08T14:13:29;3.23;;;3.00;;
33074;SDS011;19433;51.292;6.868;2023-07-08T14:15:54;3.30;;;3.00;;
33074;SDS011;19433;51.292;6.868;2023-07-08T14:18:20;3.00;;;2.80;;
33074;SDS011;19433;51.292;6.868;2023-07-08T14:20:45;3.47;;;3.00;;
33074;SDS011;19433;51.292;6.868;2023-07-08T14:23:11;3.57;;;3.27;;
33074;SDS011;19433;51.292;6.868;2023-07-08T14:25:37;4.67;;;3.23;;
33074;SDS011;19433;51.292;6.868;2023-07-08T14:28:03;3.47;;;3.17;;
33074;SDS011;19433;51.292;6.868;2023-07-08T14:30:30;3.60;;;3.27;;
33074;SDS011;19433;51.292;6.868;2023-07-08T14:32:56;3.80;;;3.40;;
33074;SDS011;19433;51.292;6.868;2023-07-08T14:35:27;3.57;;;3.30;;
33074;SDS011;19433;51.292;6.868;2023-07-08T14:37:53;3.20;;;3.00;;
33074;SDS011;19433;51.292;6.868;2023-07-08T14:40:31;3.63;;;3.30;;
33074;SDS011;19433;51.292;6.868;2023-07-08T14:43:14;2.87;;;2.67;;
33074;SDS011;19433;51.292;6.868;2023-07-08T14:45:48;3.13;;;2.93;;
33074;SDS011;19433;51.292;6.868;2023-07-08T14:48:15;3.20;;;2.90;;
33074;SDS011;19433;51.292;6.868;2023-07-08T14:50:41;5.10;;;3.07;;
33074;SDS011;19433;51.292;6.868;2023-07-08T14:53:06;3.57;;;3.27;;
33074;SDS011;19433;51.292;6.868;2023-07-08T14:55:32;3.33;;;3.03;;
33074;SDS011;19433;51.292;6.868;2023-07-08T14:57:58;4.20;;;3.80;;
33074;SDS011;19433;51.292;6.868;2023-07-08T15:00:24;3.40;;;3.10;;
33074;SDS011;19433;51.292;6.868;2023-07-08T15:02:50;3.90;;;3.60;;
33074;SDS011;19433;51.292;6.868;2023-07-08T15:05:23;4.10;;;3.67;;
33074;SDS011;19433;51.292;6.868;2023-07-08T15:07:51;3.00;;;2.80;;
33074;SDS011;19433;51.292;6.868;2023-07-08T15:10:18;3.80;;;3.50;;
33074;SDS011;19433;51.292;6.868;2023-07-08T15:12:45;4.90;;;3.80;;
33074;SDS011;19433;51.292;6.868;2023-07-08T15:15:15;4.30;;;3.80;;
33074;SDS011;19433;51.292;6.868;2023-07-08T15:17:48;3.60;;;3.30;;
33074;SDS011;19433;51.292;6.868;2023-07-08T15:20:14;3.67;;;2.83;;
33074;SDS011;19433;51.292;6.868;2023-07-08T15:22:43;3.43;;;3.00;;
33074;SDS011;19433;51.292;6.868;2023-07-08T15:25:10;3.67;;;3.37;;
33074;SDS011;19433;51.292;6.868;2023-07-08T15:27:37;3.37;;;3.00;;
33074;SDS011;19433;51.292;6.868;2023-07-08T15:30:03;3.67;;;3.37;;
33074;SDS011;19433;51.292;6.868;2023-07-08T15:32:29;3.60;;;3.30;;
33074;SDS011;19433;51.292;6.868;2023-07-08T15:34:54;3.73;;;3.43;;
33074;SDS011;19433;51.292;6.868;2023-07-08T15:37:19;3.33;;;3.00;;
33074;SDS011;19433;51.292;6.868;2023-07-08T15:39:45;3.13;;;2.90;;